CYGH

Details ICAO CYGH (YGH)
Name FORT GOOD HOPE
Region Canada
Timezone America/Yellowknife (UTC-7.0)
Plans Departing 1
Arriving 1
Stats Elevation 268 ft / 82 m (AMSL)
Location 66.240836° -128.650835°
Runways 1
Magnetic Variation 21.364° E
Sunrise 2017-12-14 19:08:37 UTC / 2017-12-14 12:08:37 Local
Sunset 2017-12-14 21:53:05 UTC / 2017-12-14 14:53:05 Local
Advertisement - Login to hide

Runways

ID Width Length Bearing (true) Bearing (mag) Surface Threshold Offset Overrun Length
06 98 ft / 30 m 3,024 ft / 922 m 89.99° 68.63° Gravel 0 ft / 0 m 0 ft / 0 m
24 98 ft / 30 m 3,024 ft / 922 m 270.01° 248.65° Gravel 0 ft / 0 m 0 ft / 0 m

Map

Weather


0- 5 10 15 20 25 30 35+ Temperature / ° C

Clouds and Precipitation
Forecast for 2017-12-15 06:00 UTC. Updated 2 hours ago

Ground ~20,000 ft ~40,000 ft Winds

METAR

Not found

TAF

TAF CYGH 141744Z 1418/1424 06005KT P6SM FEW020 BKN060 RMK NXT FCST WILL BE ISSUED AT 151515Z

Frequencies

Unicom 122.10 MHz MANDATORY FREQ
Warning: Do not use this data for real-world aviation or navigation. No guarantee of current accuracy is given.